createdAt,value
2023-05-21T00:01:47.380Z,102825.38
2023-05-21T00:04:34.834Z,102822.63
2023-05-21T00:07:21.982Z,102821.69
2023-05-21T00:10:09.225Z,102814.53
2023-05-21T00:12:56.280Z,102794.28
2023-05-21T00:15:43.502Z,102815.28
2023-05-21T00:18:30.485Z,102816.13
2023-05-21T00:21:18.016Z,102819.63
2023-05-21T00:24:05.104Z,102818.69
2023-05-21T00:26:52.318Z,102820.47
2023-05-21T00:29:39.342Z,102812.56
2023-05-21T00:32:27.021Z,102818.66
2023-05-21T00:35:14.497Z,102770.34
2023-05-21T00:38:01.804Z,102816.09
2023-05-21T00:40:48.783Z,102829.31
2023-05-21T00:43:36.128Z,102826.69
2023-05-21T00:46:23.220Z,102820.56
2023-05-21T00:49:11.226Z,102828.53
2023-05-21T00:51:58.512Z,102817.84
2023-05-21T00:54:45.878Z,102812.72
2023-05-21T00:57:33.864Z,102811.78
2023-05-21T01:00:21.334Z,102818.88
2023-05-21T01:03:08.565Z,102806.69
2023-05-21T01:05:55.824Z,102815.50
2023-05-21T01:08:42.765Z,102810.25
2023-05-21T01:11:30.144Z,102777.84
2023-05-21T01:14:17.611Z,102804.09
2023-05-21T01:17:07.640Z,102777.84
2023-05-21T01:19:54.979Z,102812.97
2023-05-21T01:22:43.995Z,102808.59
2023-05-21T01:25:31.135Z,102811.13
2023-05-21T01:28:18.374Z,102803.22
2023-05-21T01:31:05.503Z,102807.53
2023-05-21T01:34:15.977Z,102804.88
2023-05-21T01:37:12.032Z,102807.50
2023-05-21T01:40:04.203Z,102808.41
2023-05-21T01:42:53.728Z,102801.34
2023-05-21T01:45:43.760Z,102802.19
2023-05-21T01:48:32.828Z,102792.59
2023-05-21T01:51:23.860Z,102787.28
2023-05-21T01:54:10.907Z,102796.00
2023-05-21T01:56:58.550Z,102804.06
2023-05-21T01:59:45.933Z,102813.78
2023-05-21T02:02:33.173Z,102818.25
2023-05-21T02:05:20.527Z,102809.47
2023-05-21T02:08:07.969Z,102818.25
2023-05-21T02:10:57.960Z,102818.25
2023-05-21T02:13:45.519Z,102817.38
2023-05-21T02:16:32.922Z,102826.22
2023-05-21T02:19:20.435Z,102820.03
2023-05-21T02:22:07.533Z,102821.78
2023-05-21T02:24:54.845Z,102821.81
2023-05-21T02:27:41.757Z,102821.84
2023-05-21T02:30:31.343Z,102817.47
2023-05-21T02:33:18.270Z,102817.56
2023-05-21T02:36:07.121Z,102819.34
2023-05-21T02:38:54.172Z,102823.75
2023-05-21T02:41:41.563Z,102813.06
2023-05-21T02:44:28.615Z,102818.41
2023-05-21T02:47:16.320Z,102812.25
2023-05-21T02:50:03.423Z,102814.84
2023-05-21T02:52:51.712Z,102821.88
2023-05-21T02:55:38.979Z,102814.81
2023-05-21T02:58:26.319Z,102830.66
2023-05-21T03:01:13.329Z,102825.31
2023-05-21T03:04:00.796Z,102821.78
2023-05-21T03:06:47.874Z,102825.28
2023-05-21T03:09:35.226Z,102812.91
2023-05-21T03:12:22.318Z,102810.25
2023-05-21T03:15:10.103Z,102812.06
2023-05-21T03:17:57.247Z,102799.75
2023-05-21T03:20:44.687Z,102795.53
2023-05-21T03:23:31.712Z,102796.41
2023-05-21T03:26:19.416Z,102808.78
2023-05-21T03:29:07.001Z,102797.28
2023-05-21T03:31:55.978Z,102799.91
2023-05-21T03:34:43.434Z,102797.19
2023-05-21T03:37:30.698Z,102806.03
2023-05-21T03:40:19.194Z,102755.06
2023-05-21T03:43:06.499Z,102800.69
2023-05-21T03:45:53.925Z,102798.88
2023-05-21T03:48:59.101Z,102799.66
2023-05-21T03:51:48.148Z,102793.44
2023-05-21T03:54:37.568Z,102794.28
2023-05-21T03:57:28.265Z,102800.38
2023-05-21T04:00:15.366Z,102797.69
2023-05-21T04:03:07.565Z,102797.69
2023-05-21T04:05:54.872Z,102789.63
2023-05-21T04:08:42.924Z,102783.44
2023-05-21T04:11:30.109Z,102774.56
2023-05-21T04:14:17.199Z,102772.66
2023-05-21T04:17:04.727Z,102780.56
2023-05-21T04:19:52.318Z,102779.66
2023-05-21T04:22:39.558Z,102778.75
2023-05-21T04:25:26.982Z,102784.00
2023-05-21T04:28:14.367Z,102748.91
2023-05-21T04:31:01.524Z,102783.84
2023-05-21T04:33:48.916Z,102784.53
2023-05-21T04:36:35.930Z,102787.03
2023-05-21T04:39:23.086Z,102781.69
2023-05-21T04:42:10.430Z,102772.69
2023-05-21T04:44:58.998Z,102779.56
2023-05-21T04:47:47.620Z,102788.22
2023-05-21T04:50:34.763Z,102789.00
2023-05-21T04:53:22.572Z,102807.56
2023-05-21T04:56:10.761Z,102793.28
2023-05-21T04:58:57.874Z,102789.63
2023-05-21T05:01:45.767Z,102790.19
2023-05-21T05:04:32.890Z,102788.25
2023-05-21T05:07:20.032Z,102795.19
2023-05-21T05:10:07.144Z,102802.13
2023-05-21T05:12:54.433Z,102790.44
2023-05-21T05:15:41.727Z,102790.28
2023-05-21T05:18:28.877Z,102791.97
2023-05-21T05:21:16.111Z,102797.19
2023-05-21T05:24:03.319Z,102792.66
2023-05-21T05:26:52.225Z,102787.16
2023-05-21T05:29:39.446Z,102796.91
2023-05-21T05:32:27.250Z,102803.00
2023-05-21T05:35:15.013Z,102801.09
2023-05-21T05:38:02.274Z,102787.72
2023-05-21T05:40:49.495Z,102794.72
2023-05-21T05:43:36.595Z,102785.91
2023-05-21T05:46:24.043Z,102786.69
2023-05-21T05:49:13.166Z,102795.44
2023-05-21T05:52:00.804Z,102779.41
2023-05-21T05:54:47.948Z,102782.91
2023-05-21T05:57:35.449Z,102776.53
2023-05-21T06:00:31.635Z,102784.28
2023-05-21T06:03:20.280Z,102792.13
2023-05-21T06:06:08.122Z,102784.81
2023-05-21T06:08:55.409Z,102789.19
2023-05-21T06:11:42.549Z,102784.59
2023-05-21T06:14:29.772Z,102785.41
2023-05-21T06:17:17.194Z,102770.22
2023-05-21T06:20:04.767Z,102779.69
2023-05-21T06:22:52.184Z,102779.53
2023-05-21T06:25:40.368Z,102744.44
2023-05-21T06:28:28.758Z,102735.53
2023-05-21T06:31:16.361Z,102789.81
2023-05-21T06:34:04.572Z,102791.53
2023-05-21T06:36:52.956Z,102781.72
2023-05-21T06:39:40.370Z,102793.19
2023-05-21T06:42:27.824Z,102782.44
2023-05-21T06:45:50.023Z,102777.09
2023-05-21T06:48:56.162Z,102786.84
2023-05-21T06:51:43.175Z,102785.81
2023-05-21T06:54:32.059Z,102783.94
2023-05-21T06:57:20.976Z,102784.75
2023-05-21T07:00:08.365Z,102783.84
2023-05-21T07:02:56.306Z,102753.09
2023-05-21T07:05:43.655Z,102776.47
2023-05-21T07:08:30.849Z,102779.06
2023-05-21T07:11:19.025Z,102776.19
2023-05-21T07:14:06.257Z,102780.44
2023-05-21T07:16:55.874Z,102774.09
2023-05-21T07:19:42.984Z,102782.16
2023-05-21T07:22:30.418Z,102776.72
2023-05-21T07:25:17.604Z,102785.53
2023-05-21T07:28:06.637Z,102773.94
2023-05-21T07:30:55.453Z,102775.56
2023-05-21T07:33:49.657Z,102787.75
2023-05-21T07:36:38.515Z,102777.16
2023-05-21T07:39:25.603Z,102781.31
2023-05-21T07:42:13.046Z,102786.53
2023-05-21T07:45:01.234Z,102779.22
2023-05-21T07:47:51.516Z,102771.50
2023-05-21T07:50:39.485Z,102788.06
2023-05-21T07:53:26.691Z,102783.56
2023-05-21T07:56:14.808Z,102786.19
2023-05-21T07:59:03.085Z,102785.25
2023-05-21T08:01:50.362Z,102771.91
2023-05-21T08:04:40.040Z,102772.69
2023-05-21T08:07:28.252Z,102782.25
2023-05-21T08:10:16.686Z,102788.38
2023-05-21T08:13:05.886Z,102783.81
2023-05-21T08:15:53.590Z,102778.41
2023-05-21T08:18:42.001Z,102788.13
2023-05-21T08:21:29.181Z,102788.06
2023-05-21T08:24:16.599Z,102756.44
2023-05-21T08:27:03.554Z,102781.72
2023-05-21T08:29:51.501Z,102787.97
2023-05-21T08:32:38.702Z,102786.09
2023-05-21T08:35:26.800Z,102780.88
2023-05-21T08:38:40.380Z,102783.28
2023-05-21T08:41:43.689Z,102783.09
2023-05-21T08:44:32.431Z,102786.44
2023-05-21T08:47:22.683Z,102761.09
2023-05-21T08:50:11.391Z,102792.53
2023-05-21T08:52:58.584Z,102788.00
2023-05-21T08:55:45.854Z,102787.84
2023-05-21T08:58:30.965Z,102784.09
2023-05-21T09:01:18.541Z,102777.66
2023-05-21T09:04:20.139Z,102784.47
2023-05-21T09:07:11.716Z,102781.53
2023-05-21T09:10:31.150Z,102775.94
2023-05-21T09:13:19.246Z,102780.16
2023-05-21T09:16:08.195Z,102778.91
2023-05-21T09:18:55.696Z,102770.63
2023-05-21T09:21:49.568Z,102775.63
2023-05-21T09:24:42.015Z,102765.44
2023-05-21T09:27:29.303Z,102774.91
2023-05-21T09:30:16.326Z,102763.28
2023-05-21T09:33:04.875Z,102763.59
2023-05-21T09:35:53.256Z,102764.19
2023-05-21T09:38:43.165Z,102758.44
2023-05-21T09:41:30.109Z,102767.59
2023-05-21T09:44:24.567Z,102757.44
2023-05-21T09:47:17.535Z,102768.66
2023-05-21T09:50:05.888Z,102774.97
2023-05-21T09:52:56.695Z,102754.25
2023-05-21T09:55:45.257Z,102763.06
2023-05-21T09:58:32.265Z,102759.31
2023-05-21T10:01:19.556Z,102749.28
2023-05-21T10:04:14.581Z,102754.19
2023-05-21T10:07:03.911Z,102753.88
2023-05-21T10:09:51.490Z,102751.03
2023-05-21T10:12:39.895Z,102736.06
2023-05-21T10:15:29.880Z,102755.50
2023-05-21T10:18:18.768Z,102745.63
2023-05-21T10:21:15.568Z,102745.13
2023-05-21T10:24:03.615Z,102737.00
2023-05-21T10:26:51.380Z,102743.56
2023-05-21T10:29:39.528Z,102739.50
2023-05-21T10:32:27.501Z,102742.41
2023-05-21T10:35:14.720Z,102739.69
2023-05-21T10:38:03.601Z,102742.75
2023-05-21T10:40:50.673Z,102744.84
2023-05-21T10:43:43.794Z,102736.03
2023-05-21T10:46:49.810Z,102734.31
2023-05-21T10:49:55.061Z,102732.69
2023-05-21T10:53:10.811Z,102728.94
2023-05-21T10:56:29.756Z,102735.72
2023-05-21T10:59:30.354Z,102730.16
2023-05-21T11:02:18.049Z,102729.03
2023-05-21T11:05:06.105Z,102718.53
2023-05-21T11:08:12.745Z,102718.41
2023-05-21T11:11:00.721Z,102691.19
2023-05-21T11:13:49.868Z,102711.56
2023-05-21T11:16:38.093Z,102718.38
2023-05-21T11:19:25.244Z,102725.38
2023-05-21T11:22:15.182Z,102694.91
2023-05-21T11:25:02.358Z,102717.31
2023-05-21T11:28:09.630Z,102711.59
2023-05-21T11:30:56.983Z,102707.19
2023-05-21T11:33:44.264Z,102703.38
2023-05-21T11:36:35.967Z,102707.84
2023-05-21T11:39:37.038Z,102691.59
2023-05-21T11:42:24.261Z,102699.22
2023-05-21T11:45:11.454Z,102697.06
2023-05-21T11:48:00.481Z,102690.44
2023-05-21T11:50:47.541Z,102688.84
2023-05-21T11:53:34.945Z,102702.19
2023-05-21T11:56:22.563Z,102696.75
2023-05-21T11:59:09.756Z,102705.00
2023-05-21T12:01:57.006Z,102702.38
2023-05-21T12:04:44.102Z,102705.22
2023-05-21T12:07:32.128Z,102717.69
2023-05-21T12:10:20.861Z,102705.88
2023-05-21T12:13:07.943Z,102708.59
2023-05-21T12:15:55.218Z,102712.16
2023-05-21T12:18:42.412Z,102707.81
2023-05-21T12:21:29.670Z,102699.22
2023-05-21T12:24:16.860Z,102689.53
2023-05-21T12:27:04.222Z,102719.38
2023-05-21T12:29:52.417Z,102721.84
2023-05-21T12:32:41.428Z,102688.81
2023-05-21T12:35:28.841Z,102724.50
2023-05-21T12:38:16.243Z,102722.53
2023-05-21T12:41:03.378Z,102722.38
2023-05-21T12:43:53.821Z,102724.31
2023-05-21T12:46:41.216Z,102721.09
2023-05-21T12:49:28.469Z,102716.78
2023-05-21T12:52:17.032Z,102725.00
2023-05-21T12:55:09.733Z,102734.00
2023-05-21T12:57:58.132Z,102737.56
2023-05-21T13:00:45.225Z,102732.69
2023-05-21T13:03:32.362Z,102729.78
2023-05-21T13:06:19.976Z,102735.16
2023-05-21T13:09:07.249Z,102703.22
2023-05-21T13:11:54.239Z,102736.06
2023-05-21T13:14:41.434Z,102736.38
2023-05-21T13:17:28.492Z,102737.34
2023-05-21T13:20:34.170Z,102733.59
2023-05-21T13:23:21.145Z,102739.19
2023-05-21T13:26:08.246Z,102733.97
2023-05-21T13:28:55.276Z,102741.34
2023-05-21T13:31:42.396Z,102734.25
2023-05-21T13:34:30.967Z,102728.63
2023-05-21T13:37:18.448Z,102721.91
2023-05-21T13:40:05.964Z,102716.72
2023-05-21T13:42:54.090Z,102733.78
2023-05-21T13:45:41.427Z,102731.94
2023-05-21T13:48:28.684Z,102739.81
2023-05-21T13:51:25.515Z,102737.47
2023-05-21T13:54:23.748Z,102714.19
2023-05-21T13:57:10.941Z,102733.84
2023-05-21T13:59:58.204Z,102735.41
2023-05-21T14:02:45.795Z,102730.66
2023-05-21T14:05:33.350Z,102714.69
2023-05-21T14:08:20.550Z,102716.53
2023-05-21T14:11:07.755Z,102711.28
2023-05-21T14:13:54.799Z,102715.88
2023-05-21T14:16:42.123Z,102693.16
2023-05-21T14:19:29.329Z,102703.75
2023-05-21T14:22:16.715Z,102710.38
2023-05-21T14:25:03.715Z,102712.69
2023-05-21T14:27:50.962Z,102711.19
2023-05-21T14:30:37.931Z,102713.16
2023-05-21T14:33:25.141Z,102679.97
2023-05-21T14:36:12.154Z,102703.56
2023-05-21T14:38:59.394Z,102703.78
2023-05-21T14:41:47.788Z,102703.06
2023-05-21T14:44:34.992Z,102698.94
2023-05-21T14:47:22.210Z,102690.34
2023-05-21T14:50:09.488Z,102696.59
2023-05-21T14:52:56.483Z,102674.16
2023-05-21T14:55:43.789Z,102701.53
2023-05-21T14:58:30.787Z,102703.25
2023-05-21T15:01:18.229Z,102682.97
2023-05-21T15:04:05.261Z,102693.09
2023-05-21T15:06:52.673Z,102692.28
2023-05-21T15:09:39.721Z,102692.28
2023-05-21T15:12:51.907Z,102686.56
